Maggie Valley, North Carolina
Current Conditions -  °F | °C
As of 7:14 PM on Monday 22 Dec 2014 (Local Time) from KAVL Reporting Station
Haze Haze  
Wind Chill: 37°   Ceiling: 300
Heat Index: 40°   Visibility: 4mi
Dew Point: 39°   Wind: 5mph
Humidity: 97%   Direction: 200°SSW
Pressure: 29.98"   Gusts: NA
Location:  35.52°N, 83.1°W
Report Text: KAVL 230014Z 20004KT 4SM BR OVC003 04/04 A2998 RMK AO2 T00440039
Loading
Personal Weather Stations






























Interactive Weather Map New forecast layout! Learn more

10-Day Weather Forecast

Advertisements
Track Severe Weather on mobile